WetterOnline ( https://www.wetteronline.de )

Wetter aktuell Erzgebirge/Ost

Aktuelles Wetter: Zinnwald (882m)

6-stündlich | Neueste Meldungen
Ortszeit Temperatur Wetter
Mi, 05.10. 2:00 6.3° C leicht bewölkt
Di, 04.10. 20:00 8.0° C wolkenlos
Di, 04.10. 14:00 10.1° C wolkig
Di, 04.10. 8:00 6.5° C Nebel
Di, 04.10. 2:00 7.3° C Nebel
Mo, 03.10. 20:00 7.3° C bedeckt
Mo, 03.10. 14:00 7.8° C bewölkt
Mo, 03.10. 8:00 6.1° C leichter Regen
Ortszeit Temperatur Wetter
Mi, 05.10. 3:30 6.3° C fast wolkenlos
Mi, 05.10. 3:20 6.3° C fast wolkenlos
Mi, 05.10. 3:10 6.4° C leicht bewölkt
Mi, 05.10. 3:00 6.5° C leicht bewölkt
Mi, 05.10. 2:50 6.5° C leicht bewölkt
Mi, 05.10. 2:40 6.7° C leicht bewölkt
Mi, 05.10. 2:30 7.0° C wolkenlos
Mi, 05.10. 2:00 6.3° C leicht bewölkt
Mi, 05.10. 1:30 6.1° C leicht bewölkt
Mi, 05.10. 1:00 7.3° C wolkenlos
Mi, 05.10. 0:30 7.4° C wolkenlos
Ortszeit Relative Feuchte Sichtweite
Mi, 05.10. 2:00 88% 65 km
Di, 04.10. 20:00 79% >70 km
Di, 04.10. 14:00 80% 60 km
Di, 04.10. 8:00 99% 0.2 km
Di, 04.10. 2:00 99% 100 m
Mo, 03.10. 20:00 98% 13 km
Mo, 03.10. 14:00 90% 40 km
Mo, 03.10. 8:00 99% 0.4 km
Ortszeit Relative Feuchte Sichtweite
Mi, 05.10. 3:30 88% 55 km
Mi, 05.10. 3:20 88% -
Mi, 05.10. 3:10 76% -
Mi, 05.10. 3:00 83% 65 km
Mi, 05.10. 2:50 83% -
Mi, 05.10. 2:40 79% -
Mi, 05.10. 2:30 78% >70 km
Mi, 05.10. 2:00 88% 65 km
Mi, 05.10. 1:30 90% 55 km
Mi, 05.10. 1:00 70% >70 km
Mi, 05.10. 0:30 72% >70 km
Ortszeit Niederschlagsmenge Niederschlagsart
Mi, 05.10. 2:00 0.0 l/m2 in 6 Std. -
Di, 04.10. 20:00 0.0 l/m2 in 12 Std. -
Di, 04.10. 14:00 0.0 l/m2 in 6 Std. -
Di, 04.10. 8:00 2 l/m2 in 12 Std. Regen
Di, 04.10. 2:00 2 l/m2 in 6 Std. Regen
Mo, 03.10. 20:00 4 l/m2 in 12 Std. Regen
Mo, 03.10. 14:00 4 l/m2 in 6 Std. Regen
Mo, 03.10. 8:00 5 l/m2 in 12 Std. Regen
Ortszeit Niederschlagsmenge Niederschlagsart
Mi, 05.10. 3:30 0.0 l/m2 in 1 Std. -
Mi, 05.10. 3:20 keine Meldung -
Mi, 05.10. 3:10 keine Meldung -
Mi, 05.10. 3:00 0.0 l/m2 in 1 Std. -
Mi, 05.10. 2:50 keine Meldung -
Mi, 05.10. 2:40 keine Meldung -
Mi, 05.10. 2:30 0.0 l/m2 in 1 Std. -
Mi, 05.10. 2:00 0.0 l/m2 in 1 Std. -
Mi, 05.10. 1:30 0.0 l/m2 in 1 Std. -
Mi, 05.10. 1:00 0.0 l/m2 in 1 Std. -
Mi, 05.10. 0:30 0.0 l/m2 in 1 Std. -
Ortszeit Stärke Spitze Richtung
km/h Bft. km/h Grad Sektor
Mi, 05.10. 2:00 14 3 32 160° S
Di, 04.10. 20:00 22 4 28 170° S
Di, 04.10. 14:00 13 3 37 270° W
Di, 04.10. 8:00 22 4 47 300° NW
Di, 04.10. 2:00 24 4 50 300° NW
Mo, 03.10. 20:00 26 4 50 290° W
Mo, 03.10. 14:00 29 5 65 300° NW
Mo, 03.10. 8:00 25 4 58 300° NW
Ortszeit Stärke Spitze Richtung
km/h Bft. km/h Grad Sektor
Mi, 05.10. 3:30 19 3 20 150° SO
Mi, 05.10. 3:20 19 3 - 150° SO
Mi, 05.10. 3:10 18 3 - 170° S
Mi, 05.10. 3:00 18 3 25 160° S
Mi, 05.10. 2:50 18 3 - 160° S
Mi, 05.10. 2:40 19 3 - 160° S
Mi, 05.10. 2:30 18 3 25 170° S
Mi, 05.10. 2:00 14 3 22 160° S
Mi, 05.10. 1:30 14 3 18 140° SO
Mi, 05.10. 1:00 11 2 22 190° S
Mi, 05.10. 0:30 18 3 22 200° S
Ortszeit Untergrenze Bedeckung Gattung
total tief tief mittel hoch
Mi, 05.10. 2:00 8700 m 4/8 0/8 - - -
Di, 04.10. 20:00 - 0/8 0/8 - - -
Di, 04.10. 14:00 330 m 7/8 5/8 - - -
Di, 04.10. 8:00 30 m 8/8 8/8 - - -
Di, 04.10. 2:00 <30 m 8/8 0/8 - - -
Mo, 03.10. 20:00 60 m 8/8 8/8 - - -
Mo, 03.10. 14:00 180 m 7/8 7/8 - - -
Mo, 03.10. 8:00 30 m 8/8 8/8 - - -
Ortszeit Bedeckungsgrad in Achtel und Wolkenuntergrenze
Mi, 05.10. 3:30 1(10500m)
Mi, 05.10. 3:20 1(10500m)
Mi, 05.10. 3:10 3
Mi, 05.10. 3:00 1(8700m) 3(9000m)
Mi, 05.10. 2:50 1(8700m) 3(9000m)
Mi, 05.10. 2:40 3
Mi, 05.10. 2:30 keine Wolken
Mi, 05.10. 2:00 4(8700m)
Mi, 05.10. 1:30 2(8400m) 3(9000m)
Mi, 05.10. 1:00 keine Wolken
Mi, 05.10. 0:30 keine Wolken
Ortszeit Stationsdruck (hPa) Tendenz (hPa in 3 Std.)
Mi, 05.10. 2:00 921 - 0,7
Di, 04.10. 20:00 921 - 0,6
Di, 04.10. 14:00 922 + 0,5
Di, 04.10. 8:00 920 + 0,2
Di, 04.10. 2:00 920 - 0,3
Mo, 03.10. 20:00 921 0,0
Mo, 03.10. 14:00 920 + 0,6
Mo, 03.10. 8:00 919 + 0,6
Ortszeit Stationsdruck (hPa) Tendenz (hPa in 3 Std.)
Mi, 05.10. 3:30 921 - 1,4
Mi, 05.10. 3:20 921 keine Meldung
Mi, 05.10. 3:10 920 keine Meldung
Mi, 05.10. 3:00 921 - 1,5
Mi, 05.10. 2:50 921 keine Meldung
Mi, 05.10. 2:40 921 keine Meldung
Mi, 05.10. 2:30 921 - 1,2
Mi, 05.10. 2:00 921 - 0,7
Mi, 05.10. 1:30 921 - 0,3
Mi, 05.10. 1:00 922 + 0,4
Mi, 05.10. 0:30 922 + 0,6
Ortszeit Schneehöhe (cm)
Mi, 05.10. 2:00 0
Di, 04.10. 20:00 0
Di, 04.10. 14:00 0
Di, 04.10. 8:00 0
Di, 04.10. 2:00 0
Mo, 03.10. 20:00 0
Mo, 03.10. 14:00 0
Mo, 03.10. 8:00 0
Ortszeit Schneehöhe (cm)
Mi, 05.10. 3:30 0
Mi, 05.10. 3:20 0
Mi, 05.10. 3:10 0
Mi, 05.10. 3:00 0
Mi, 05.10. 2:50 0
Mi, 05.10. 2:40 0
Mi, 05.10. 2:30 0
Mi, 05.10. 2:00 0
Mi, 05.10. 1:30 0
Mi, 05.10. 1:00 0
Mi, 05.10. 0:30 0
Link zu dieser Seite / Seite empfehlen

Das Wetter in ...